createdAt,value
2018-04-29T00:01:33.074Z,67.10
2018-04-29T00:06:36.280Z,67.20
2018-04-29T00:11:39.509Z,67.40
2018-04-29T00:16:41.962Z,67.20
2018-04-29T00:21:44.422Z,67.40
2018-04-29T00:26:46.855Z,67.20
2018-04-29T00:31:50.069Z,66.80
2018-04-29T00:36:53.283Z,66.70
2018-04-29T00:41:56.498Z,66.90
2018-04-29T00:46:59.717Z,66.90
2018-04-29T00:52:07.209Z,66.70
2018-04-29T00:57:10.422Z,67.20
2018-04-29T01:02:13.617Z,67.40
2018-04-29T01:07:16.186Z,67.30
2018-04-29T01:12:18.646Z,67.40
2018-04-29T01:17:21.086Z,68.00
2018-04-29T01:22:23.531Z,68.30
2018-04-29T01:27:25.976Z,68.60
2018-04-29T01:32:28.441Z,68.60
2018-04-29T01:37:30.892Z,69.20
2018-04-29T01:47:59.948Z,69.10
2018-04-29T01:53:02.419Z,69.20
2018-04-29T01:58:04.874Z,69.30
2018-04-29T02:03:07.332Z,69.60
2018-04-29T02:08:09.770Z,69.50
2018-04-29T02:13:12.213Z,69.30
2018-04-29T02:18:14.667Z,69.70
2018-04-29T02:23:17.112Z,69.90
2018-04-29T02:28:19.628Z,69.80
2018-04-29T02:33:22.111Z,69.70
2018-04-29T02:38:24.564Z,70.50
2018-04-29T02:43:27.780Z,70.60
2018-04-29T02:48:31.723Z,70.50
2018-04-29T02:53:34.164Z,70.90
2018-04-29T03:03:44.429Z,71.40
2018-04-29T03:08:46.897Z,71.20
2018-04-29T03:13:50.101Z,71.40
2018-04-29T03:18:53.307Z,72.80
2018-04-29T03:23:56.538Z,73.00
2018-04-29T03:28:58.972Z,72.80
2018-04-29T03:34:01.412Z,73.10
2018-04-29T03:39:05.513Z,73.50
2018-04-29T03:44:08.719Z,73.70
2018-04-29T03:49:11.185Z,73.60
2018-04-29T03:54:13.616Z,73.30
2018-04-29T03:59:27.949Z,73.70
2018-04-29T04:04:30.396Z,73.60
2018-04-29T04:09:33.638Z,73.60
2018-04-29T04:14:38.698Z,73.60
2018-04-29T04:25:13.488Z,73.70
2018-04-29T04:30:15.947Z,73.80
2018-04-29T04:35:18.400Z,74.00
2018-04-29T04:40:21.079Z,73.70
2018-04-29T04:45:23.556Z,73.50
2018-04-29T04:50:26.031Z,74.10
2018-04-29T04:55:28.482Z,74.40
2018-04-29T05:00:30.937Z,74.30
2018-04-29T05:05:33.393Z,74.30
2018-04-29T05:10:36.752Z,73.20
2018-04-29T05:15:39.250Z,73.10
2018-04-29T05:20:41.697Z,73.00
2018-04-29T05:25:44.147Z,72.80
2018-04-29T05:30:46.629Z,72.50
2018-04-29T05:35:49.143Z,71.90
2018-04-29T05:40:52.046Z,71.10
2018-04-29T05:51:22.859Z,70.10
2018-04-29T05:56:26.184Z,69.80
2018-04-29T06:01:28.645Z,69.20
2018-04-29T06:06:37.703Z,68.60
2018-04-29T06:11:40.149Z,67.00
2018-04-29T06:16:42.597Z,67.20
2018-04-29T06:21:45.886Z,65.90
2018-04-29T06:26:48.390Z,65.80
2018-04-29T06:31:52.463Z,65.00
2018-04-29T06:36:54.876Z,64.90
2018-04-29T06:41:57.329Z,64.20
2018-04-29T06:46:59.802Z,63.90
2018-04-29T06:52:03.014Z,62.20
2018-04-29T06:57:09.930Z,61.90
2018-04-29T07:02:13.519Z,61.80
2018-04-29T07:07:21.548Z,61.30
2018-04-29T07:12:28.766Z,60.60
2018-04-29T07:17:31.993Z,60.00
2018-04-29T07:22:36.901Z,59.80
2018-04-29T07:27:39.371Z,59.60
2018-04-29T07:32:41.862Z,58.80
2018-04-29T07:37:44.552Z,58.40
2018-04-29T07:42:47.160Z,57.70
2018-04-29T07:47:49.634Z,57.50
2018-04-29T07:52:52.097Z,57.30
2018-04-29T07:57:54.591Z,57.00
2018-04-29T08:02:58.105Z,56.50
2018-04-29T08:08:00.588Z,56.30
2018-04-29T08:13:03.824Z,56.00
2018-04-29T08:18:06.294Z,55.70
2018-04-29T08:23:13.783Z,53.90
2018-04-29T08:28:17.254Z,52.40
2018-04-29T08:33:19.745Z,51.90
2018-04-29T08:38:25.001Z,51.70
2018-04-29T08:43:27.477Z,51.00
2018-04-29T08:48:30.842Z,50.60
2018-04-29T08:53:33.372Z,50.30
2018-04-29T08:58:45.482Z,50.00
2018-04-29T09:03:48.800Z,50.00
2018-04-29T09:08:51.261Z,49.90
2018-04-29T09:13:53.725Z,49.50
2018-04-29T09:18:56.212Z,49.70
2018-04-29T09:24:00.124Z,49.40
2018-04-29T09:29:04.662Z,50.00
2018-04-29T09:39:29.739Z,50.80
2018-04-29T09:44:32.222Z,51.00
2018-04-29T09:49:34.667Z,51.10
2018-04-29T09:54:37.252Z,50.10
2018-04-29T09:59:39.788Z,49.30
2018-04-29T10:04:43.059Z,50.80
2018-04-29T10:09:45.509Z,50.80
2018-04-29T10:14:47.961Z,51.40
2018-04-29T10:19:51.597Z,51.30
2018-04-29T10:24:55.424Z,51.50
2018-04-29T10:29:58.653Z,52.30
2018-04-29T10:35:01.282Z,52.10
2018-04-29T10:40:03.766Z,52.30
2018-04-29T10:45:06.327Z,52.40
2018-04-29T10:50:09.601Z,52.00
2018-04-29T10:55:12.133Z,51.80
2018-04-29T11:00:14.633Z,52.20
2018-04-29T11:05:17.766Z,52.00
2018-04-29T11:10:20.218Z,51.70
2018-04-29T11:15:42.400Z,51.90
2018-04-29T11:20:44.873Z,51.90
2018-04-29T11:25:47.358Z,52.10
2018-04-29T11:30:50.683Z,51.30
2018-04-29T11:35:58.503Z,51.10
2018-04-29T11:41:09.857Z,51.40
2018-04-29T11:46:12.408Z,53.00
2018-04-29T11:51:15.021Z,53.90
2018-04-29T11:56:17.475Z,54.60
2018-04-29T12:01:20.753Z,53.80
2018-04-29T12:06:23.727Z,53.70
2018-04-29T12:11:27.753Z,53.60
2018-04-29T12:16:30.299Z,53.40
2018-04-29T12:21:33.438Z,53.10
2018-04-29T12:26:35.933Z,53.00
2018-04-29T12:31:41.789Z,53.30
2018-04-29T12:36:47.089Z,53.30
2018-04-29T12:41:49.549Z,52.90
2018-04-29T12:46:52.766Z,52.80
2018-04-29T12:51:55.221Z,52.70
2018-04-29T12:56:57.681Z,53.00
2018-04-29T13:02:00.133Z,52.30
2018-04-29T13:07:02.670Z,52.10
2018-04-29T13:12:05.063Z,51.60
2018-04-29T13:17:07.546Z,51.30
2018-04-29T13:22:10.022Z,51.50
2018-04-29T13:27:13.278Z,51.70
2018-04-29T13:32:15.878Z,51.90
2018-04-29T13:37:19.078Z,52.20
2018-04-29T13:47:51.837Z,52.70
2018-04-29T13:53:00.322Z,58.80
2018-04-29T13:58:03.003Z,58.80
2018-04-29T14:03:05.456Z,59.80
2018-04-29T14:08:07.905Z,62.30
2018-04-29T14:13:10.365Z,65.90
2018-04-29T14:18:12.830Z,69.20
2018-04-29T14:23:15.306Z,71.10
2018-04-29T14:28:17.762Z,73.60
2018-04-29T14:33:20.208Z,74.60
2018-04-29T14:38:23.434Z,74.70
2018-04-29T14:43:26.653Z,74.00
2018-04-29T14:48:29.112Z,73.80
2018-04-29T14:53:32.460Z,74.70
2018-04-29T14:58:34.934Z,75.20
2018-04-29T15:03:47.723Z,75.30
2018-04-29T15:08:50.177Z,75.20
2018-04-29T15:13:52.650Z,75.50
2018-04-29T15:18:59.853Z,76.10
2018-04-29T15:24:02.373Z,75.70
2018-04-29T15:29:17.411Z,76.20
2018-04-29T15:39:36.341Z,75.60
2018-04-29T15:44:38.904Z,75.50
2018-04-29T15:49:41.349Z,74.40
2018-04-29T15:54:44.580Z,74.50
2018-04-29T15:59:47.045Z,74.30
2018-04-29T16:04:50.274Z,74.30
2018-04-29T16:09:52.712Z,74.10
2018-04-29T16:14:55.163Z,72.30
2018-04-29T16:19:57.607Z,70.40
2018-04-29T16:25:17.682Z,70.50
2018-04-29T16:30:20.151Z,70.00
2018-04-29T16:40:33.502Z,69.10
2018-04-29T16:45:36.704Z,69.60
2018-04-29T16:50:45.750Z,69.60
2018-04-29T16:55:48.211Z,67.80
2018-04-29T17:00:50.674Z,67.90
2018-04-29T17:05:53.125Z,67.30
2018-04-29T17:10:55.563Z,67.30
2018-04-29T17:15:58.016Z,67.20
2018-04-29T17:21:00.468Z,67.90
2018-04-29T17:26:02.913Z,68.10
2018-04-29T17:31:06.142Z,68.40
2018-04-29T17:36:08.597Z,68.40
2018-04-29T17:41:11.802Z,68.90
2018-04-29T17:46:15.893Z,68.80
2018-04-29T17:51:18.344Z,68.80
2018-04-29T17:56:21.552Z,68.60
2018-04-29T18:01:24.833Z,68.60
2018-04-29T18:06:27.991Z,68.60
2018-04-29T18:16:51.181Z,68.80
2018-04-29T18:21:53.637Z,69.00
2018-04-29T18:26:56.406Z,69.40
2018-04-29T18:31:58.875Z,69.20
2018-04-29T18:37:02.094Z,69.10
2018-04-29T18:42:07.860Z,68.60
2018-04-29T18:47:10.490Z,68.60
2018-04-29T18:52:12.949Z,68.00
2018-04-29T18:57:16.208Z,68.30
2018-04-29T19:02:18.659Z,68.20
2018-04-29T19:07:21.868Z,68.30
2018-04-29T19:12:25.078Z,68.00
2018-04-29T19:17:27.596Z,68.00
2018-04-29T19:27:57.459Z,68.00
2018-04-29T19:32:59.904Z,68.00
2018-04-29T19:38:02.361Z,68.00
2018-04-29T19:43:05.002Z,68.20
2018-04-29T19:48:07.538Z,68.00
2018-04-29T19:53:09.985Z,68.00
2018-04-29T19:58:13.214Z,68.30
2018-04-29T20:03:16.441Z,68.40
2018-04-29T20:08:18.918Z,68.10
2018-04-29T20:13:22.208Z,68.50
2018-04-29T20:18:25.429Z,68.50
2018-04-29T20:23:27.886Z,68.50
2018-04-29T20:28:30.356Z,68.60
2018-04-29T20:33:32.798Z,68.60
2018-04-29T20:38:36.033Z,69.60
2018-04-29T20:43:39.305Z,68.80
2018-04-29T20:48:41.755Z,68.70
2018-04-29T20:53:44.210Z,68.60
2018-04-29T20:58:47.451Z,68.30
2018-04-29T21:03:49.910Z,68.10
2018-04-29T21:08:52.365Z,67.90
2018-04-29T21:13:57.857Z,67.50
2018-04-29T21:19:01.822Z,67.20
2018-04-29T21:24:04.257Z,67.10
2018-04-29T21:29:06.718Z,66.80
2018-04-29T21:34:09.154Z,66.20
2018-04-29T21:39:11.607Z,66.00
2018-04-29T21:44:14.087Z,65.50
2018-04-29T21:49:17.332Z,64.70
2018-04-29T21:59:28.625Z,64.40
2018-04-29T22:04:32.234Z,63.60
2018-04-29T22:09:35.440Z,63.30
2018-04-29T22:14:38.656Z,63.30
2018-04-29T22:19:41.998Z,63.10
2018-04-29T22:24:44.437Z,62.90
2018-04-29T22:29:46.900Z,62.60
2018-04-29T22:34:49.341Z,62.60
2018-04-29T22:39:52.995Z,62.20
2018-04-29T22:44:56.184Z,62.20
2018-04-29T22:49:58.646Z,62.10
2018-04-29T22:55:01.110Z,61.70
2018-04-29T23:00:03.558Z,61.50
2018-04-29T23:05:06.012Z,61.40
2018-04-29T23:10:08.538Z,61.40
2018-04-29T23:15:11.776Z,61.20
2018-04-29T23:20:14.274Z,61.00
2018-04-29T23:25:24.621Z,60.80
2018-04-29T23:30:27.132Z,60.70
2018-04-29T23:35:29.561Z,60.50
2018-04-29T23:40:32.022Z,60.30
2018-04-29T23:45:34.678Z,60.40
2018-04-29T23:50:37.192Z,60.30
2018-04-29T23:55:40.408Z,60.70
